sensor_id;sensor_type;location;lat;lon;timestamp;P1;durP1;ratioP1;P2;durP2;ratioP2
9854;SDS011;4966;48.112;9.282;2023-07-13T00:00:14;16.23;;;8.77;;
9854;SDS011;4966;48.112;9.282;2023-07-13T00:02:41;14.90;;;7.97;;
9854;SDS011;4966;48.112;9.282;2023-07-13T00:05:07;16.52;;;7.45;;
9854;SDS011;4966;48.112;9.282;2023-07-13T00:07:33;15.55;;;7.63;;
9854;SDS011;4966;48.112;9.282;2023-07-13T00:09:59;13.02;;;5.97;;
9854;SDS011;4966;48.112;9.282;2023-07-13T00:12:27;9.88;;;5.55;;
9854;SDS011;4966;48.112;9.282;2023-07-13T00:14:55;8.90;;;5.03;;
9854;SDS011;4966;48.112;9.282;2023-07-13T00:17:23;10.13;;;4.95;;
9854;SDS011;4966;48.112;9.282;2023-07-13T00:19:48;9.85;;;4.50;;
9854;SDS011;4966;48.112;9.282;2023-07-13T00:22:14;8.40;;;4.28;;
9854;SDS011;4966;48.112;9.282;2023-07-13T00:24:39;11.93;;;3.97;;
9854;SDS011;4966;48.112;9.282;2023-07-13T00:27:07;11.65;;;4.72;;
9854;SDS011;4966;48.112;9.282;2023-07-13T00:29:34;10.75;;;4.30;;
9854;SDS011;4966;48.112;9.282;2023-07-13T00:32:00;11.18;;;4.25;;
9854;SDS011;4966;48.112;9.282;2023-07-13T00:34:25;6.32;;;4.05;;
9854;SDS011;4966;48.112;9.282;2023-07-13T00:36:51;7.63;;;3.30;;
9854;SDS011;4966;48.112;9.282;2023-07-13T00:39:16;7.60;;;3.63;;
9854;SDS011;4966;48.112;9.282;2023-07-13T00:41:41;4.97;;;3.00;;
9854;SDS011;4966;48.112;9.282;2023-07-13T00:44:11;5.65;;;3.33;;
9854;SDS011;4966;48.112;9.282;2023-07-13T00:46:39;8.85;;;3.60;;
9854;SDS011;4966;48.112;9.282;2023-07-13T00:49:06;6.72;;;3.70;;
9854;SDS011;4966;48.112;9.282;2023-07-13T00:51:39;6.50;;;3.17;;
9854;SDS011;4966;48.112;9.282;2023-07-13T00:54:09;3.88;;;2.60;;
9854;SDS011;4966;48.112;9.282;2023-07-13T00:56:38;10.40;;;3.05;;
9854;SDS011;4966;48.112;9.282;2023-07-13T00:59:05;7.32;;;3.25;;
9854;SDS011;4966;48.112;9.282;2023-07-13T01:01:33;9.10;;;2.97;;
9854;SDS011;4966;48.112;9.282;2023-07-13T01:03:58;6.90;;;3.72;;
9854;SDS011;4966;48.112;9.282;2023-07-13T01:06:24;5.32;;;2.10;;
9854;SDS011;4966;48.112;9.282;2023-07-13T01:08:50;5.35;;;2.00;;
9854;SDS011;4966;48.112;9.282;2023-07-13T01:11:19;5.00;;;2.03;;
9854;SDS011;4966;48.112;9.282;2023-07-13T01:13:47;3.80;;;2.15;;
9854;SDS011;4966;48.112;9.282;2023-07-13T01:16:24;5.95;;;2.30;;
9854;SDS011;4966;48.112;9.282;2023-07-13T01:18:51;5.63;;;2.30;;
9854;SDS011;4966;48.112;9.282;2023-07-13T01:21:17;3.83;;;2.53;;
9854;SDS011;4966;48.112;9.282;2023-07-13T01:23:43;6.78;;;2.58;;
9854;SDS011;4966;48.112;9.282;2023-07-13T01:26:09;4.75;;;2.58;;
9854;SDS011;4966;48.112;9.282;2023-07-13T01:28:36;10.90;;;2.78;;
9854;SDS011;4966;48.112;9.282;2023-07-13T01:31:02;6.20;;;2.95;;
9854;SDS011;4966;48.112;9.282;2023-07-13T01:33:29;7.43;;;3.10;;
9854;SDS011;4966;48.112;9.282;2023-07-13T01:35:54;6.10;;;2.60;;
9854;SDS011;4966;48.112;9.282;2023-07-13T01:38:22;4.57;;;2.80;;
9854;SDS011;4966;48.112;9.282;2023-07-13T01:40:50;4.78;;;2.60;;
9854;SDS011;4966;48.112;9.282;2023-07-13T01:43:16;12.88;;;2.92;;
9854;SDS011;4966;48.112;9.282;2023-07-13T01:45:42;7.30;;;2.63;;
9854;SDS011;4966;48.112;9.282;2023-07-13T01:48:09;7.72;;;2.00;;
9854;SDS011;4966;48.112;9.282;2023-07-13T01:50:35;5.45;;;2.45;;
9854;SDS011;4966;48.112;9.282;2023-07-13T01:53:00;7.47;;;2.30;;
9854;SDS011;4966;48.112;9.282;2023-07-13T01:55:27;7.30;;;2.22;;
9854;SDS011;4966;48.112;9.282;2023-07-13T01:57:53;4.15;;;2.42;;
9854;SDS011;4966;48.112;9.282;2023-07-13T02:00:18;6.78;;;3.15;;
9854;SDS011;4966;48.112;9.282;2023-07-13T02:02:44;9.43;;;2.75;;
9854;SDS011;4966;48.112;9.282;2023-07-13T02:05:09;12.30;;;3.42;;
9854;SDS011;4966;48.112;9.282;2023-07-13T02:07:35;6.13;;;3.17;;
9854;SDS011;4966;48.112;9.282;2023-07-13T02:10:00;7.57;;;2.40;;
9854;SDS011;4966;48.112;9.282;2023-07-13T02:12:26;6.85;;;2.40;;
9854;SDS011;4966;48.112;9.282;2023-07-13T02:14:51;8.40;;;2.38;;
9854;SDS011;4966;48.112;9.282;2023-07-13T02:17:16;6.72;;;2.22;;
9854;SDS011;4966;48.112;9.282;2023-07-13T02:19:42;6.50;;;2.72;;
9854;SDS011;4966;48.112;9.282;2023-07-13T02:22:07;6.05;;;2.88;;
9854;SDS011;4966;48.112;9.282;2023-07-13T02:24:32;8.38;;;2.80;;
9854;SDS011;4966;48.112;9.282;2023-07-13T02:26:58;8.43;;;2.05;;
9854;SDS011;4966;48.112;9.282;2023-07-13T02:29:23;9.57;;;2.60;;
9854;SDS011;4966;48.112;9.282;2023-07-13T02:31:49;8.25;;;2.22;;
9854;SDS011;4966;48.112;9.282;2023-07-13T02:34:14;4.35;;;2.10;;
9854;SDS011;4966;48.112;9.282;2023-07-13T02:36:40;4.45;;;2.17;;
9854;SDS011;4966;48.112;9.282;2023-07-13T02:39:05;9.00;;;2.40;;
9854;SDS011;4966;48.112;9.282;2023-07-13T02:41:31;11.20;;;3.45;;
9854;SDS011;4966;48.112;9.282;2023-07-13T02:44:00;4.88;;;2.55;;
9854;SDS011;4966;48.112;9.282;2023-07-13T02:46:33;6.63;;;2.40;;
9854;SDS011;4966;48.112;9.282;2023-07-13T02:49:02;8.48;;;2.42;;
9854;SDS011;4966;48.112;9.282;2023-07-13T02:51:29;13.15;;;2.10;;
9854;SDS011;4966;48.112;9.282;2023-07-13T02:53:54;13.15;;;2.20;;
9854;SDS011;4966;48.112;9.282;2023-07-13T02:56:22;16.88;;;2.67;;
9854;SDS011;4966;48.112;9.282;2023-07-13T02:58:48;14.13;;;2.40;;
9854;SDS011;4966;48.112;9.282;2023-07-13T03:01:14;13.57;;;2.45;;
9854;SDS011;4966;48.112;9.282;2023-07-13T03:03:43;10.65;;;2.30;;
9854;SDS011;4966;48.112;9.282;2023-07-13T03:06:08;9.07;;;2.40;;
9854;SDS011;4966;48.112;9.282;2023-07-13T03:08:33;12.90;;;2.17;;
9854;SDS011;4966;48.112;9.282;2023-07-13T03:11:09;13.98;;;2.88;;
9854;SDS011;4966;48.112;9.282;2023-07-13T03:13:37;9.85;;;3.33;;
9854;SDS011;4966;48.112;9.282;2023-07-13T03:16:03;6.05;;;2.30;;
9854;SDS011;4966;48.112;9.282;2023-07-13T03:18:29;6.28;;;1.75;;
9854;SDS011;4966;48.112;9.282;2023-07-13T03:20:55;5.03;;;2.10;;
9854;SDS011;4966;48.112;9.282;2023-07-13T03:23:21;9.10;;;1.65;;
9854;SDS011;4966;48.112;9.282;2023-07-13T03:25:47;6.13;;;2.00;;
9854;SDS011;4966;48.112;9.282;2023-07-13T03:28:12;4.35;;;1.75;;
9854;SDS011;4966;48.112;9.282;2023-07-13T03:30:38;7.53;;;2.20;;
9854;SDS011;4966;48.112;9.282;2023-07-13T03:33:04;4.65;;;1.75;;
9854;SDS011;4966;48.112;9.282;2023-07-13T03:35:29;5.32;;;2.13;;
9854;SDS011;4966;48.112;9.282;2023-07-13T03:37:58;5.53;;;2.88;;
9854;SDS011;4966;48.112;9.282;2023-07-13T03:40:25;4.35;;;1.65;;
9854;SDS011;4966;48.112;9.282;2023-07-13T03:42:51;9.70;;;1.77;;
9854;SDS011;4966;48.112;9.282;2023-07-13T03:45:17;11.48;;;2.40;;
9854;SDS011;4966;48.112;9.282;2023-07-13T03:47:42;6.00;;;2.00;;
9854;SDS011;4966;48.112;9.282;2023-07-13T03:50:08;7.05;;;1.98;;
9854;SDS011;4966;48.112;9.282;2023-07-13T03:52:33;7.88;;;1.58;;
9854;SDS011;4966;48.112;9.282;2023-07-13T03:54:59;15.43;;;1.90;;
9854;SDS011;4966;48.112;9.282;2023-07-13T03:57:24;9.57;;;1.75;;
9854;SDS011;4966;48.112;9.282;2023-07-13T03:59:51;11.20;;;1.95;;
9854;SDS011;4966;48.112;9.282;2023-07-13T04:02:16;12.68;;;2.00;;
9854;SDS011;4966;48.112;9.282;2023-07-13T04:04:42;9.30;;;2.08;;
9854;SDS011;4966;48.112;9.282;2023-07-13T04:07:08;22.88;;;2.20;;
9854;SDS011;4966;48.112;9.282;2023-07-13T04:09:33;14.43;;;2.10;;
9854;SDS011;4966;48.112;9.282;2023-07-13T04:11:59;7.97;;;1.70;;
9854;SDS011;4966;48.112;9.282;2023-07-13T04:14:24;7.95;;;1.85;;
9854;SDS011;4966;48.112;9.282;2023-07-13T04:16:49;16.02;;;2.25;;
9854;SDS011;4966;48.112;9.282;2023-07-13T04:19:15;5.32;;;1.42;;
9854;SDS011;4966;48.112;9.282;2023-07-13T04:21:40;9.48;;;1.70;;
9854;SDS011;4966;48.112;9.282;2023-07-13T04:24:05;13.85;;;1.38;;
9854;SDS011;4966;48.112;9.282;2023-07-13T04:26:31;10.25;;;1.60;;
9854;SDS011;4966;48.112;9.282;2023-07-13T04:28:57;4.72;;;1.48;;
9854;SDS011;4966;48.112;9.282;2023-07-13T04:31:22;6.40;;;1.73;;
9854;SDS011;4966;48.112;9.282;2023-07-13T04:33:48;7.63;;;1.35;;
9854;SDS011;4966;48.112;9.282;2023-07-13T04:36:14;5.97;;;1.63;;
9854;SDS011;4966;48.112;9.282;2023-07-13T04:38:40;4.03;;;1.42;;
9854;SDS011;4966;48.112;9.282;2023-07-13T04:41:06;4.47;;;1.30;;
9854;SDS011;4966;48.112;9.282;2023-07-13T04:43:33;7.47;;;1.48;;
9854;SDS011;4966;48.112;9.282;2023-07-13T04:46:08;8.10;;;1.90;;
9854;SDS011;4966;48.112;9.282;2023-07-13T04:48:36;6.82;;;2.00;;
9854;SDS011;4966;48.112;9.282;2023-07-13T04:51:02;5.30;;;1.50;;
9854;SDS011;4966;48.112;9.282;2023-07-13T04:53:28;8.68;;;1.73;;
9854;SDS011;4966;48.112;9.282;2023-07-13T04:55:54;7.57;;;1.55;;
9854;SDS011;4966;48.112;9.282;2023-07-13T04:58:20;7.53;;;1.60;;
9854;SDS011;4966;48.112;9.282;2023-07-13T05:00:46;11.23;;;1.88;;
9854;SDS011;4966;48.112;9.282;2023-07-13T05:03:12;6.43;;;1.40;;
9854;SDS011;4966;48.112;9.282;2023-07-13T05:05:37;7.20;;;1.92;;
9854;SDS011;4966;48.112;9.282;2023-07-13T05:08:03;8.10;;;1.50;;
9854;SDS011;4966;48.112;9.282;2023-07-13T05:10:28;6.72;;;1.50;;
9854;SDS011;4966;48.112;9.282;2023-07-13T05:12:53;11.90;;;1.65;;
9854;SDS011;4966;48.112;9.282;2023-07-13T05:15:21;8.02;;;1.30;;
9854;SDS011;4966;48.112;9.282;2023-07-13T05:17:48;7.60;;;1.42;;
9854;SDS011;4966;48.112;9.282;2023-07-13T05:20:14;11.15;;;1.55;;
9854;SDS011;4966;48.112;9.282;2023-07-13T05:22:40;8.57;;;1.77;;
9854;SDS011;4966;48.112;9.282;2023-07-13T05:25:06;6.03;;;1.63;;
9854;SDS011;4966;48.112;9.282;2023-07-13T05:27:33;9.15;;;1.88;;
9854;SDS011;4966;48.112;9.282;2023-07-13T05:29:59;6.20;;;1.40;;
9854;SDS011;4966;48.112;9.282;2023-07-13T05:32:25;3.97;;;1.50;;
9854;SDS011;4966;48.112;9.282;2023-07-13T05:34:50;5.95;;;1.35;;
9854;SDS011;4966;48.112;9.282;2023-07-13T05:37:15;13.43;;;1.70;;
9854;SDS011;4966;48.112;9.282;2023-07-13T05:39:41;12.27;;;1.58;;
9854;SDS011;4966;48.112;9.282;2023-07-13T05:42:06;9.07;;;1.77;;
9854;SDS011;4966;48.112;9.282;2023-07-13T05:44:32;9.93;;;1.70;;
9854;SDS011;4966;48.112;9.282;2023-07-13T05:46:57;6.57;;;1.48;;
9854;SDS011;4966;48.112;9.282;2023-07-13T05:49:22;5.38;;;1.92;;
9854;SDS011;4966;48.112;9.282;2023-07-13T05:51:48;7.95;;;1.50;;
9854;SDS011;4966;48.112;9.282;2023-07-13T05:54:14;9.82;;;1.50;;
9854;SDS011;4966;48.112;9.282;2023-07-13T05:56:39;2.55;;;1.50;;
9854;SDS011;4966;48.112;9.282;2023-07-13T05:59:04;5.72;;;1.40;;
9854;SDS011;4966;48.112;9.282;2023-07-13T06:01:30;3.20;;;1.52;;
9854;SDS011;4966;48.112;9.282;2023-07-13T06:03:56;6.13;;;1.50;;
9854;SDS011;4966;48.112;9.282;2023-07-13T06:06:21;5.45;;;1.50;;
9854;SDS011;4966;48.112;9.282;2023-07-13T06:08:47;6.47;;;1.70;;
9854;SDS011;4966;48.112;9.282;2023-07-13T06:11:17;5.43;;;1.52;;
9854;SDS011;4966;48.112;9.282;2023-07-13T06:13:44;5.47;;;1.73;;
9854;SDS011;4966;48.112;9.282;2023-07-13T06:16:11;5.18;;;1.63;;
9854;SDS011;4966;48.112;9.282;2023-07-13T06:18:37;3.50;;;1.38;;
9854;SDS011;4966;48.112;9.282;2023-07-13T06:21:11;13.15;;;1.60;;
9854;SDS011;4966;48.112;9.282;2023-07-13T06:23:38;4.95;;;1.40;;
9854;SDS011;4966;48.112;9.282;2023-07-13T06:26:04;2.00;;;1.30;;
9854;SDS011;4966;48.112;9.282;2023-07-13T06:28:30;4.03;;;1.60;;
9854;SDS011;4966;48.112;9.282;2023-07-13T06:30:56;4.13;;;1.48;;
9854;SDS011;4966;48.112;9.282;2023-07-13T06:33:23;4.30;;;1.42;;
9854;SDS011;4966;48.112;9.282;2023-07-13T06:35:48;5.85;;;1.40;;
9854;SDS011;4966;48.112;9.282;2023-07-13T06:38:14;4.43;;;1.52;;
9854;SDS011;4966;48.112;9.282;2023-07-13T06:40:39;3.05;;;1.48;;
9854;SDS011;4966;48.112;9.282;2023-07-13T06:43:04;7.18;;;1.60;;
9854;SDS011;4966;48.112;9.282;2023-07-13T06:45:29;5.82;;;4.80;;
9854;SDS011;4966;48.112;9.282;2023-07-13T06:47:55;2.17;;;1.70;;
9854;SDS011;4966;48.112;9.282;2023-07-13T06:50:20;3.50;;;1.20;;
9854;SDS011;4966;48.112;9.282;2023-07-13T06:52:45;4.30;;;1.17;;
9854;SDS011;4966;48.112;9.282;2023-07-13T06:55:11;5.68;;;1.58;;
9854;SDS011;4966;48.112;9.282;2023-07-13T06:57:36;3.67;;;1.15;;
9854;SDS011;4966;48.112;9.282;2023-07-13T07:00:02;3.38;;;1.55;;
9854;SDS011;4966;48.112;9.282;2023-07-13T07:02:27;4.32;;;1.40;;
9854;SDS011;4966;48.112;9.282;2023-07-13T07:04:52;2.05;;;1.02;;
9854;SDS011;4966;48.112;9.282;2023-07-13T07:07:19;2.13;;;1.13;;
9854;SDS011;4966;48.112;9.282;2023-07-13T07:09:44;2.53;;;1.20;;
9854;SDS011;4966;48.112;9.282;2023-07-13T07:12:10;4.13;;;1.20;;
9854;SDS011;4966;48.112;9.282;2023-07-13T07:14:35;4.10;;;1.10;;
9854;SDS011;4966;48.112;9.282;2023-07-13T07:17:00;2.85;;;1.15;;
9854;SDS011;4966;48.112;9.282;2023-07-13T07:19:27;3.13;;;0.95;;
9854;SDS011;4966;48.112;9.282;2023-07-13T07:21:54;4.70;;;1.20;;
9854;SDS011;4966;48.112;9.282;2023-07-13T07:24:19;3.30;;;1.25;;
9854;SDS011;4966;48.112;9.282;2023-07-13T07:26:45;2.90;;;1.05;;
9854;SDS011;4966;48.112;9.282;2023-07-13T07:29:10;4.05;;;0.90;;
9854;SDS011;4966;48.112;9.282;2023-07-13T07:31:35;3.60;;;1.10;;
9854;SDS011;4966;48.112;9.282;2023-07-13T07:34:02;3.70;;;1.50;;
9854;SDS011;4966;48.112;9.282;2023-07-13T07:36:27;5.70;;;1.10;;
9854;SDS011;4966;48.112;9.282;2023-07-13T07:38:53;4.40;;;1.02;;
9854;SDS011;4966;48.112;9.282;2023-07-13T07:41:18;4.95;;;1.00;;
9854;SDS011;4966;48.112;9.282;2023-07-13T07:43:44;7.07;;;0.95;;
9854;SDS011;4966;48.112;9.282;2023-07-13T07:46:09;3.38;;;0.98;;
9854;SDS011;4966;48.112;9.282;2023-07-13T07:48:34;3.03;;;1.10;;
9854;SDS011;4966;48.112;9.282;2023-07-13T07:51:00;4.45;;;1.20;;
9854;SDS011;4966;48.112;9.282;2023-07-13T07:53:25;2.13;;;1.00;;
9854;SDS011;4966;48.112;9.282;2023-07-13T07:55:50;3.63;;;1.10;;
9854;SDS011;4966;48.112;9.282;2023-07-13T07:58:16;3.55;;;1.00;;
9854;SDS011;4966;48.112;9.282;2023-07-13T08:00:42;3.47;;;1.20;;
9854;SDS011;4966;48.112;9.282;2023-07-13T08:03:07;3.53;;;1.10;;
9854;SDS011;4966;48.112;9.282;2023-07-13T08:05:34;1.83;;;0.98;;
9854;SDS011;4966;48.112;9.282;2023-07-13T08:08:00;3.90;;;1.00;;
9854;SDS011;4966;48.112;9.282;2023-07-13T08:10:26;4.03;;;1.10;;
9854;SDS011;4966;48.112;9.282;2023-07-13T08:12:51;4.28;;;1.20;;
9854;SDS011;4966;48.112;9.282;2023-07-13T08:15:17;3.45;;;1.05;;
9854;SDS011;4966;48.112;9.282;2023-07-13T08:17:42;3.05;;;1.00;;
9854;SDS011;4966;48.112;9.282;2023-07-13T08:20:08;3.38;;;1.08;;
9854;SDS011;4966;48.112;9.282;2023-07-13T08:22:34;4.85;;;1.17;;
9854;SDS011;4966;48.112;9.282;2023-07-13T08:25:00;2.40;;;1.10;;
9854;SDS011;4966;48.112;9.282;2023-07-13T08:27:26;5.07;;;0.98;;
9854;SDS011;4966;48.112;9.282;2023-07-13T08:29:52;2.47;;;1.10;;
9854;SDS011;4966;48.112;9.282;2023-07-13T08:32:19;3.30;;;1.00;;
9854;SDS011;4966;48.112;9.282;2023-07-13T08:34:46;3.65;;;0.90;;
9854;SDS011;4966;48.112;9.282;2023-07-13T08:37:11;2.78;;;0.93;;
9854;SDS011;4966;48.112;9.282;2023-07-13T08:39:37;5.53;;;1.30;;
9854;SDS011;4966;48.112;9.282;2023-07-13T08:42:22;8.38;;;1.23;;
9854;SDS011;4966;48.112;9.282;2023-07-13T08:47:55;4.65;;;1.23;;
9854;SDS011;4966;48.112;9.282;2023-07-13T08:50:26;2.58;;;0.80;;
9854;SDS011;4966;48.112;9.282;2023-07-13T08:52:55;3.72;;;0.90;;
9854;SDS011;4966;48.112;9.282;2023-07-13T08:55:27;4.65;;;1.20;;
9854;SDS011;4966;48.112;9.282;2023-07-13T08:58:02;4.82;;;0.70;;
9854;SDS011;4966;48.112;9.282;2023-07-13T09:00:55;2.15;;;1.20;;
9854;SDS011;4966;48.112;9.282;2023-07-13T09:03:40;2.88;;;1.00;;
9854;SDS011;4966;48.112;9.282;2023-07-13T09:06:15;3.08;;;1.05;;
9854;SDS011;4966;48.112;9.282;2023-07-13T09:14:05;5.88;;;1.20;;
9854;SDS011;4966;48.112;9.282;2023-07-13T09:16:40;4.28;;;1.70;;
9854;SDS011;4966;48.112;9.282;2023-07-13T09:19:07;5.20;;;1.42;;
9854;SDS011;4966;48.112;9.282;2023-07-13T09:21:39;2.45;;;0.88;;
9854;SDS011;4966;48.112;9.282;2023-07-13T09:29:28;4.87;;;1.43;;
9854;SDS011;4966;48.112;9.282;2023-07-13T09:34:26;2.38;;;0.80;;
9854;SDS011;4966;48.112;9.282;2023-07-13T09:36:51;3.65;;;1.10;;
9854;SDS011;4966;48.112;9.282;2023-07-13T09:39:24;1.67;;;1.05;;
9854;SDS011;4966;48.112;9.282;2023-07-13T09:42:20;2.97;;;0.90;;
9854;SDS011;4966;48.112;9.282;2023-07-13T09:47:19;3.47;;;1.08;;
9854;SDS011;4966;48.112;9.282;2023-07-13T09:50:09;4.75;;;0.80;;
9854;SDS011;4966;48.112;9.282;2023-07-13T09:52:40;2.63;;;0.82;;
9854;SDS011;4966;48.112;9.282;2023-07-13T09:55:24;2.30;;;0.80;;
9854;SDS011;4966;48.112;9.282;2023-07-13T09:57:51;3.75;;;1.00;;
9854;SDS011;4966;48.112;9.282;2023-07-13T10:00:27;4.18;;;1.40;;
9854;SDS011;4966;48.112;9.282;2023-07-13T10:02:57;3.40;;;2.05;;
9854;SDS011;4966;48.112;9.282;2023-07-13T10:05:25;6.05;;;1.00;;
9854;SDS011;4966;48.112;9.282;2023-07-13T10:07:50;5.72;;;1.00;;
9854;SDS011;4966;48.112;9.282;2023-07-13T10:10:21;5.30;;;1.92;;
9854;SDS011;4966;48.112;9.282;2023-07-13T10:12:48;2.17;;;1.02;;
9854;SDS011;4966;48.112;9.282;2023-07-13T10:15:19;1.98;;;0.88;;
9854;SDS011;4966;48.112;9.282;2023-07-13T10:17:47;1.92;;;1.10;;
9854;SDS011;4966;48.112;9.282;2023-07-13T10:20:14;4.55;;;1.02;;
9854;SDS011;4966;48.112;9.282;2023-07-13T10:25:39;2.33;;;0.80;;
9854;SDS011;4966;48.112;9.282;2023-07-13T10:28:28;6.25;;;1.20;;
9854;SDS011;4966;48.112;9.282;2023-07-13T10:30:56;3.17;;;1.10;;
9854;SDS011;4966;48.112;9.282;2023-07-13T10:33:25;2.22;;;0.90;;
9854;SDS011;4966;48.112;9.282;2023-07-13T10:35:53;3.95;;;1.42;;
9854;SDS011;4966;48.112;9.282;2023-07-13T10:38:26;3.38;;;0.98;;
9854;SDS011;4966;48.112;9.282;2023-07-13T10:40:56;3.70;;;0.90;;
9854;SDS011;4966;48.112;9.282;2023-07-13T10:43:31;5.30;;;0.95;;
9854;SDS011;4966;48.112;9.282;2023-07-13T10:46:02;5.47;;;1.55;;
9854;SDS011;4966;48.112;9.282;2023-07-13T10:48:30;5.43;;;0.90;;
9854;SDS011;4966;48.112;9.282;2023-07-13T10:50:59;1.80;;;0.88;;
9854;SDS011;4966;48.112;9.282;2023-07-13T10:53:30;2.97;;;1.00;;
9854;SDS011;4966;48.112;9.282;2023-07-13T11:03:31;3.05;;;1.13;;
9854;SDS011;4966;48.112;9.282;2023-07-13T11:18:41;2.63;;;1.10;;
9854;SDS011;4966;48.112;9.282;2023-07-13T11:21:28;3.83;;;1.05;;
9854;SDS011;4966;48.112;9.282;2023-07-13T11:31:40;7.18;;;1.33;;
9854;SDS011;4966;48.112;9.282;2023-07-13T11:34:21;2.55;;;1.13;;
9854;SDS011;4966;48.112;9.282;2023-07-13T11:36:52;4.07;;;1.30;;
9854;SDS011;4966;48.112;9.282;2023-07-13T11:39:19;2.97;;;1.10;;
9854;SDS011;4966;48.112;9.282;2023-07-13T11:44:21;5.40;;;1.27;;
9854;SDS011;4966;48.112;9.282;2023-07-13T11:46:52;3.90;;;1.15;;
9854;SDS011;4966;48.112;9.282;2023-07-13T11:49:20;6.03;;;1.60;;
9854;SDS011;4966;48.112;9.282;2023-07-13T11:51:48;2.78;;;1.35;;
9854;SDS011;4966;48.112;9.282;2023-07-13T11:56:58;2.70;;;1.23;;
9854;SDS011;4966;48.112;9.282;2023-07-13T11:59:26;5.25;;;1.52;;
9854;SDS011;4966;48.112;9.282;2023-07-13T12:01:53;5.15;;;1.25;;
9854;SDS011;4966;48.112;9.282;2023-07-13T12:04:23;4.38;;;1.13;;
9854;SDS011;4966;48.112;9.282;2023-07-13T12:07:23;2.95;;;1.38;;
9854;SDS011;4966;48.112;9.282;2023-07-13T12:09:43;2.35;;;1.05;;
9854;SDS011;4966;48.112;9.282;2023-07-13T12:12:16;4.55;;;1.20;;
9854;SDS011;4966;48.112;9.282;2023-07-13T12:14:43;5.13;;;0.90;;
9854;SDS011;4966;48.112;9.282;2023-07-13T12:17:11;6.40;;;1.10;;
9854;SDS011;4966;48.112;9.282;2023-07-13T12:19:41;2.28;;;0.90;;
9854;SDS011;4966;48.112;9.282;2023-07-13T12:22:08;7.97;;;1.27;;
9854;SDS011;4966;48.112;9.282;2023-07-13T12:24:37;5.85;;;1.08;;
9854;SDS011;4966;48.112;9.282;2023-07-13T12:27:05;3.90;;;1.10;;
9854;SDS011;4966;48.112;9.282;2023-07-13T12:29:31;8.82;;;1.30;;
9854;SDS011;4966;48.112;9.282;2023-07-13T12:31:58;5.40;;;1.10;;
9854;SDS011;4966;48.112;9.282;2023-07-13T12:34:25;6.28;;;1.40;;
9854;SDS011;4966;48.112;9.282;2023-07-13T12:37:01;5.40;;;1.40;;
9854;SDS011;4966;48.112;9.282;2023-07-13T12:39:34;2.72;;;0.93;;
9854;SDS011;4966;48.112;9.282;2023-07-13T12:44:46;4.85;;;1.13;;
9854;SDS011;4966;48.112;9.282;2023-07-13T12:47:12;10.18;;;1.20;;
9854;SDS011;4966;48.112;9.282;2023-07-13T12:49:43;3.80;;;1.27;;
9854;SDS011;4966;48.112;9.282;2023-07-13T12:52:15;5.18;;;1.13;;
9854;SDS011;4966;48.112;9.282;2023-07-13T12:54:54;3.38;;;1.10;;
9854;SDS011;4966;48.112;9.282;2023-07-13T12:57:24;4.95;;;1.10;;
9854;SDS011;4966;48.112;9.282;2023-07-13T12:59:54;5.45;;;1.08;;
9854;SDS011;4966;48.112;9.282;2023-07-13T13:02:22;2.65;;;1.10;;
9854;SDS011;4966;48.112;9.282;2023-07-13T13:04:54;9.00;;;1.13;;
9854;SDS011;4966;48.112;9.282;2023-07-13T13:07:21;3.25;;;0.90;;
9854;SDS011;4966;48.112;9.282;2023-07-13T13:09:47;2.90;;;1.15;;
9854;SDS011;4966;48.112;9.282;2023-07-13T13:12:13;2.60;;;1.30;;
9854;SDS011;4966;48.112;9.282;2023-07-13T13:14:38;7.00;;;1.20;;
9854;SDS011;4966;48.112;9.282;2023-07-13T13:17:04;6.53;;;1.00;;
9854;SDS011;4966;48.112;9.282;2023-07-13T13:19:44;4.30;;;1.10;;
9854;SDS011;4966;48.112;9.282;2023-07-13T13:22:10;7.70;;;1.33;;
9854;SDS011;4966;48.112;9.282;2023-07-13T13:24:35;2.78;;;1.10;;
9854;SDS011;4966;48.112;9.282;2023-07-13T13:27:01;2.13;;;1.20;;
9854;SDS011;4966;48.112;9.282;2023-07-13T13:29:27;6.70;;;1.20;;
9854;SDS011;4966;48.112;9.282;2023-07-13T13:31:53;2.58;;;1.00;;
9854;SDS011;4966;48.112;9.282;2023-07-13T13:34:20;5.13;;;1.30;;
9854;SDS011;4966;48.112;9.282;2023-07-13T13:36:48;4.07;;;1.00;;
9854;SDS011;4966;48.112;9.282;2023-07-13T13:39:21;2.25;;;1.13;;
9854;SDS011;4966;48.112;9.282;2023-07-13T13:41:53;4.18;;;1.25;;
9854;SDS011;4966;48.112;9.282;2023-07-13T13:44:19;3.08;;;1.20;;
9854;SDS011;4966;48.112;9.282;2023-07-13T13:46:47;4.25;;;1.48;;
9854;SDS011;4966;48.112;9.282;2023-07-13T13:49:19;6.13;;;1.63;;
9854;SDS011;4966;48.112;9.282;2023-07-13T13:51:46;9.40;;;1.70;;
9854;SDS011;4966;48.112;9.282;2023-07-13T13:54:13;4.63;;;1.50;;
9854;SDS011;4966;48.112;9.282;2023-07-13T13:56:44;4.80;;;1.60;;
9854;SDS011;4966;48.112;9.282;2023-07-13T13:59:12;7.53;;;1.60;;
9854;SDS011;4966;48.112;9.282;2023-07-13T14:01:39;11.02;;;1.73;;
9854;SDS011;4966;48.112;9.282;2023-07-13T14:04:06;7.50;;;1.70;;
9854;SDS011;4966;48.112;9.282;2023-07-13T14:06:34;4.60;;;1.60;;
9854;SDS011;4966;48.112;9.282;2023-07-13T14:09:00;4.30;;;1.27;;
9854;SDS011;4966;48.112;9.282;2023-07-13T14:11:26;4.70;;;1.30;;
9854;SDS011;4966;48.112;9.282;2023-07-13T14:13:55;3.90;;;1.27;;
9854;SDS011;4966;48.112;9.282;2023-07-13T14:16:29;4.40;;;1.33;;
9854;SDS011;4966;48.112;9.282;2023-07-13T14:18:57;2.80;;;1.23;;
9854;SDS011;4966;48.112;9.282;2023-07-13T14:21:25;2.13;;;0.90;;
9854;SDS011;4966;48.112;9.282;2023-07-13T14:23:51;4.68;;;1.30;;
9854;SDS011;4966;48.112;9.282;2023-07-13T14:26:18;4.35;;;1.20;;
9854;SDS011;4966;48.112;9.282;2023-07-13T14:28:49;2.20;;;1.10;;
9854;SDS011;4966;48.112;9.282;2023-07-13T14:31:18;2.63;;;1.00;;
9854;SDS011;4966;48.112;9.282;2023-07-13T14:33:44;4.43;;;0.88;;
9854;SDS011;4966;48.112;9.282;2023-07-13T14:36:16;4.15;;;1.10;;
9854;SDS011;4966;48.112;9.282;2023-07-13T14:41:15;3.23;;;1.30;;
9854;SDS011;4966;48.112;9.282;2023-07-13T14:43:40;2.65;;;1.10;;
9854;SDS011;4966;48.112;9.282;2023-07-13T14:46:07;4.72;;;1.20;;
9854;SDS011;4966;48.112;9.282;2023-07-13T14:48:47;4.43;;;1.40;;
9854;SDS011;4966;48.112;9.282;2023-07-13T14:51:13;6.50;;;1.40;;
9854;SDS011;4966;48.112;9.282;2023-07-13T14:53:38;5.90;;;1.42;;
9854;SDS011;4966;48.112;9.282;2023-07-13T14:56:10;4.28;;;1.25;;
9854;SDS011;4966;48.112;9.282;2023-07-13T14:58:37;3.90;;;1.30;;
9854;SDS011;4966;48.112;9.282;2023-07-13T15:01:07;4.93;;;1.42;;
9854;SDS011;4966;48.112;9.282;2023-07-13T15:03:37;7.72;;;1.60;;
9854;SDS011;4966;48.112;9.282;2023-07-13T15:06:10;5.75;;;1.52;;
9854;SDS011;4966;48.112;9.282;2023-07-13T15:08:37;2.92;;;1.45;;
9854;SDS011;4966;48.112;9.282;2023-07-13T15:11:03;7.15;;;1.50;;
9854;SDS011;4966;48.112;9.282;2023-07-13T15:13:29;4.22;;;1.80;;
9854;SDS011;4966;48.112;9.282;2023-07-13T15:15:55;8.02;;;1.60;;
9854;SDS011;4966;48.112;9.282;2023-07-13T15:18:22;3.08;;;1.80;;
9854;SDS011;4966;48.112;9.282;2023-07-13T15:20:50;4.93;;;1.80;;
9854;SDS011;4966;48.112;9.282;2023-07-13T15:23:17;2.20;;;1.40;;
9854;SDS011;4966;48.112;9.282;2023-07-13T15:25:43;2.85;;;1.58;;
9854;SDS011;4966;48.112;9.282;2023-07-13T15:28:10;5.93;;;1.73;;
9854;SDS011;4966;48.112;9.282;2023-07-13T15:30:44;3.13;;;1.67;;
9854;SDS011;4966;48.112;9.282;2023-07-13T15:33:12;5.22;;;1.30;;
9854;SDS011;4966;48.112;9.282;2023-07-13T15:35:42;3.65;;;1.60;;
9854;SDS011;4966;48.112;9.282;2023-07-13T15:38:19;4.32;;;1.70;;
9854;SDS011;4966;48.112;9.282;2023-07-13T15:40:50;5.35;;;1.67;;
9854;SDS011;4966;48.112;9.282;2023-07-13T15:43:17;2.97;;;1.63;;
9854;SDS011;4966;48.112;9.282;2023-07-13T15:45:43;4.47;;;1.50;;
9854;SDS011;4966;48.112;9.282;2023-07-13T15:50:50;7.55;;;1.23;;
9854;SDS011;4966;48.112;9.282;2023-07-13T15:53:23;5.32;;;1.27;;
9854;SDS011;4966;48.112;9.282;2023-07-13T15:55:51;3.25;;;1.20;;
9854;SDS011;4966;48.112;9.282;2023-07-13T15:58:17;4.55;;;1.27;;
9854;SDS011;4966;48.112;9.282;2023-07-13T16:00:43;4.55;;;1.17;;
9854;SDS011;4966;48.112;9.282;2023-07-13T16:03:09;3.28;;;1.10;;
9854;SDS011;4966;48.112;9.282;2023-07-13T16:05:35;2.75;;;1.20;;
9854;SDS011;4966;48.112;9.282;2023-07-13T16:08:02;5.28;;;1.20;;
9854;SDS011;4966;48.112;9.282;2023-07-13T16:10:31;5.03;;;1.20;;
9854;SDS011;4966;48.112;9.282;2023-07-13T16:12:59;6.35;;;1.35;;
9854;SDS011;4966;48.112;9.282;2023-07-13T16:15:26;2.78;;;1.27;;
9854;SDS011;4966;48.112;9.282;2023-07-13T16:17:51;3.42;;;1.10;;
9854;SDS011;4966;48.112;9.282;2023-07-13T16:20:17;4.40;;;1.23;;